sensor_id;sensor_type;location;lat;lon;timestamp;pressure;altitude;pressure_sealevel;temperature;humidity
13593;BME280;6867;50.998;4.250;2023-09-07T00:00:11;101595.56;;;18.86;97.74
13593;BME280;6867;50.998;4.250;2023-09-07T00:02:38;101595.09;;;18.89;96.90
13593;BME280;6867;50.998;4.250;2023-09-07T00:05:07;101592.25;;;18.84;96.55
13593;BME280;6867;50.998;4.250;2023-09-07T00:07:34;101596.66;;;18.85;96.62
13593;BME280;6867;50.998;4.250;2023-09-07T00:10:00;101593.59;;;18.82;96.49
13593;BME280;6867;50.998;4.250;2023-09-07T00:12:27;101590.06;;;18.70;96.38
13593;BME280;6867;50.998;4.250;2023-09-07T00:14:54;101588.53;;;18.62;96.40
13593;BME280;6867;50.998;4.250;2023-09-07T00:17:21;101588.16;;;18.58;96.68
13593;BME280;6867;50.998;4.250;2023-09-07T00:19:48;101583.47;;;18.54;96.61
13593;BME280;6867;50.998;4.250;2023-09-07T00:22:17;101587.72;;;18.50;96.45
13593;BME280;6867;50.998;4.250;2023-09-07T00:24:44;101576.41;;;18.41;96.43
13593;BME280;6867;50.998;4.250;2023-09-07T00:27:10;101568.72;;;18.38;96.37
13593;BME280;6867;50.998;4.250;2023-09-07T00:29:37;101578.88;;;18.31;96.65
13593;BME280;6867;50.998;4.250;2023-09-07T00:32:04;101576.66;;;18.28;96.69
13593;BME280;6867;50.998;4.250;2023-09-07T00:34:31;101575.84;;;18.27;97.06
13593;BME280;6867;50.998;4.250;2023-09-07T00:36:59;101573.69;;;18.29;97.10
13593;BME280;6867;50.998;4.250;2023-09-07T00:39:28;101570.97;;;18.29;96.72
13593;BME280;6867;50.998;4.250;2023-09-07T00:41:54;101573.44;;;18.31;96.79
13593;BME280;6867;50.998;4.250;2023-09-07T00:44:21;101576.88;;;18.26;96.40
13593;BME280;6867;50.998;4.250;2023-09-07T00:46:48;101578.31;;;18.17;96.57
13593;BME280;6867;50.998;4.250;2023-09-07T00:49:15;101576.22;;;18.07;96.68
13593;BME280;6867;50.998;4.250;2023-09-07T00:51:41;101575.75;;;17.99;96.72
13593;BME280;6867;50.998;4.250;2023-09-07T00:54:08;101579.75;;;17.96;96.77
13593;BME280;6867;50.998;4.250;2023-09-07T00:56:36;101576.31;;;17.89;97.18
13593;BME280;6867;50.998;4.250;2023-09-07T00:59:04;101573.84;;;17.87;97.17
13593;BME280;6867;50.998;4.250;2023-09-07T01:01:32;101581.28;;;17.80;97.32
13593;BME280;6867;50.998;4.250;2023-09-07T01:03:58;101575.28;;;17.78;97.36
13593;BME280;6867;50.998;4.250;2023-09-07T01:06:29;101560.25;;;17.76;97.31
13593;BME280;6867;50.998;4.250;2023-09-07T01:09:01;101565.81;;;17.69;97.47
13593;BME280;6867;50.998;4.250;2023-09-07T01:11:37;101568.97;;;17.66;97.59
13593;BME280;6867;50.998;4.250;2023-09-07T01:14:04;101565.66;;;17.64;97.60
13593;BME280;6867;50.998;4.250;2023-09-07T01:16:31;101567.44;;;17.70;98.00
13593;BME280;6867;50.998;4.250;2023-09-07T01:19:00;101569.22;;;17.76;97.83
13593;BME280;6867;50.998;4.250;2023-09-07T01:21:27;101564.25;;;17.73;98.03
13593;BME280;6867;50.998;4.250;2023-09-07T01:23:56;101565.47;;;17.77;98.33
13593;BME280;6867;50.998;4.250;2023-09-07T01:26:23;101562.97;;;17.76;98.39
13593;BME280;6867;50.998;4.250;2023-09-07T01:28:49;101566.53;;;17.76;98.66
13593;BME280;6867;50.998;4.250;2023-09-07T01:31:16;101567.38;;;17.77;98.67
13593;BME280;6867;50.998;4.250;2023-09-07T01:33:42;101563.34;;;17.79;98.59
13593;BME280;6867;50.998;4.250;2023-09-07T01:36:10;101565.31;;;17.72;98.73
13593;BME280;6867;50.998;4.250;2023-09-07T01:38:36;101562.25;;;17.68;98.69
13593;BME280;6867;50.998;4.250;2023-09-07T01:41:04;101563.19;;;17.62;98.88
13593;BME280;6867;50.998;4.250;2023-09-07T01:43:31;101553.63;;;17.48;98.59
13593;BME280;6867;50.998;4.250;2023-09-07T01:45:58;101546.59;;;17.29;98.41
13593;BME280;6867;50.998;4.250;2023-09-07T01:48:24;101556.53;;;17.23;98.53
13593;BME280;6867;50.998;4.250;2023-09-07T01:50:52;101556.41;;;17.18;98.19
13593;BME280;6867;50.998;4.250;2023-09-07T01:53:19;101555.09;;;17.21;98.40
13593;BME280;6867;50.998;4.250;2023-09-07T01:55:46;101549.41;;;17.22;98.45
13593;BME280;6867;50.998;4.250;2023-09-07T01:58:14;101548.63;;;17.33;98.86
13593;BME280;6867;50.998;4.250;2023-09-07T02:00:41;101555.16;;;17.44;99.15
13593;BME280;6867;50.998;4.250;2023-09-07T02:03:07;101553.72;;;17.41;99.35
13593;BME280;6867;50.998;4.250;2023-09-07T02:05:35;101553.34;;;17.38;99.59
13593;BME280;6867;50.998;4.250;2023-09-07T02:08:02;101552.53;;;17.37;99.79
13593;BME280;6867;50.998;4.250;2023-09-07T02:10:30;101547.91;;;17.38;99.75
13593;BME280;6867;50.998;4.250;2023-09-07T02:12:56;101556.06;;;17.38;99.82
13593;BME280;6867;50.998;4.250;2023-09-07T02:15:24;101559.38;;;17.40;99.77
13593;BME280;6867;50.998;4.250;2023-09-07T02:17:51;101555.84;;;17.39;99.68
13593;BME280;6867;50.998;4.250;2023-09-07T02:20:18;101551.13;;;17.35;99.41
13593;BME280;6867;50.998;4.250;2023-09-07T02:22:45;101551.78;;;17.30;99.36
13593;BME280;6867;50.998;4.250;2023-09-07T02:25:12;101551.47;;;17.27;99.27
13593;BME280;6867;50.998;4.250;2023-09-07T02:27:38;101547.31;;;17.24;99.28
13593;BME280;6867;50.998;4.250;2023-09-07T02:30:06;101552.00;;;17.17;99.36
13593;BME280;6867;50.998;4.250;2023-09-07T02:32:34;101553.66;;;17.06;99.04
13593;BME280;6867;50.998;4.250;2023-09-07T02:35:01;101549.94;;;17.01;99.07
13593;BME280;6867;50.998;4.250;2023-09-07T02:37:28;101555.94;;;16.91;99.62
13593;BME280;6867;50.998;4.250;2023-09-07T02:39:54;101549.47;;;16.92;100.00
13593;BME280;6867;50.998;4.250;2023-09-07T02:42:21;101557.28;;;17.00;100.00
13593;BME280;6867;50.998;4.250;2023-09-07T02:44:49;101552.66;;;17.01;100.00
13593;BME280;6867;50.998;4.250;2023-09-07T02:47:16;101562.19;;;16.91;100.00
13593;BME280;6867;50.998;4.250;2023-09-07T02:49:44;101555.56;;;16.87;100.00
13593;BME280;6867;50.998;4.250;2023-09-07T02:52:11;101555.53;;;16.57;100.00
13593;BME280;6867;50.998;4.250;2023-09-07T02:54:37;101566.06;;;16.65;100.00
13593;BME280;6867;50.998;4.250;2023-09-07T02:57:04;101562.75;;;16.82;100.00
13593;BME280;6867;50.998;4.250;2023-09-07T02:59:31;101553.06;;;16.74;100.00
13593;BME280;6867;50.998;4.250;2023-09-07T03:01:57;101555.09;;;16.60;100.00
13593;BME280;6867;50.998;4.250;2023-09-07T03:04:24;101549.75;;;16.54;100.00
13593;BME280;6867;50.998;4.250;2023-09-07T03:06:52;101554.47;;;16.58;100.00
13593;BME280;6867;50.998;4.250;2023-09-07T03:09:19;101548.97;;;16.47;100.00
13593;BME280;6867;50.998;4.250;2023-09-07T03:11:45;101545.63;;;16.51;100.00
13593;BME280;6867;50.998;4.250;2023-09-07T03:14:12;101535.34;;;16.53;100.00
13593;BME280;6867;50.998;4.250;2023-09-07T03:16:39;101541.97;;;16.57;100.00
13593;BME280;6867;50.998;4.250;2023-09-07T03:19:05;101550.50;;;16.61;100.00
13593;BME280;6867;50.998;4.250;2023-09-07T03:21:32;101552.00;;;16.57;100.00
13593;BME280;6867;50.998;4.250;2023-09-07T03:24:00;101561.66;;;16.53;100.00
13593;BME280;6867;50.998;4.250;2023-09-07T03:26:27;101543.03;;;16.56;100.00
13593;BME280;6867;50.998;4.250;2023-09-07T03:28:54;101557.50;;;16.50;100.00
13593;BME280;6867;50.998;4.250;2023-09-07T03:31:20;101549.06;;;16.58;100.00
13593;BME280;6867;50.998;4.250;2023-09-07T03:33:47;101551.91;;;16.63;100.00
13593;BME280;6867;50.998;4.250;2023-09-07T03:36:15;101558.53;;;16.67;100.00
13593;BME280;6867;50.998;4.250;2023-09-07T03:38:42;101561.72;;;16.64;100.00
13593;BME280;6867;50.998;4.250;2023-09-07T03:41:10;101552.28;;;16.67;100.00
13593;BME280;6867;50.998;4.250;2023-09-07T03:43:37;101559.59;;;16.66;100.00
13593;BME280;6867;50.998;4.250;2023-09-07T03:46:03;101552.75;;;16.64;100.00
13593;BME280;6867;50.998;4.250;2023-09-07T03:48:30;101555.81;;;16.67;100.00
13593;BME280;6867;50.998;4.250;2023-09-07T03:50:57;101554.28;;;16.72;100.00
13593;BME280;6867;50.998;4.250;2023-09-07T03:53:23;101555.16;;;16.72;100.00
13593;BME280;6867;50.998;4.250;2023-09-07T03:55:50;101558.03;;;16.77;100.00
13593;BME280;6867;50.998;4.250;2023-09-07T03:58:19;101560.88;;;16.82;100.00
13593;BME280;6867;50.998;4.250;2023-09-07T04:00:45;101560.50;;;16.79;100.00
13593;BME280;6867;50.998;4.250;2023-09-07T04:03:13;101563.50;;;16.89;100.00
13593;BME280;6867;50.998;4.250;2023-09-07T04:05:40;101560.78;;;16.89;100.00
13593;BME280;6867;50.998;4.250;2023-09-07T04:08:06;101565.22;;;16.83;100.00
13593;BME280;6867;50.998;4.250;2023-09-07T04:10:36;101551.81;;;16.70;100.00
13593;BME280;6867;50.998;4.250;2023-09-07T04:13:04;101556.09;;;16.48;99.54
13593;BME280;6867;50.998;4.250;2023-09-07T04:15:33;101559.56;;;16.36;99.50
13593;BME280;6867;50.998;4.250;2023-09-07T04:17:59;101561.13;;;16.44;99.78
13593;BME280;6867;50.998;4.250;2023-09-07T04:20:26;101560.59;;;16.54;100.00
13593;BME280;6867;50.998;4.250;2023-09-07T04:22:54;101549.66;;;16.60;100.00
13593;BME280;6867;50.998;4.250;2023-09-07T04:25:21;101561.94;;;16.63;100.00
13593;BME280;6867;50.998;4.250;2023-09-07T04:27:47;101569.47;;;16.61;100.00
13593;BME280;6867;50.998;4.250;2023-09-07T04:30:14;101564.94;;;16.55;100.00
13593;BME280;6867;50.998;4.250;2023-09-07T04:32:42;101562.19;;;16.43;99.90
13593;BME280;6867;50.998;4.250;2023-09-07T04:35:09;101559.69;;;16.41;100.00
13593;BME280;6867;50.998;4.250;2023-09-07T04:37:36;101560.13;;;16.38;100.00
13593;BME280;6867;50.998;4.250;2023-09-07T04:40:05;101557.38;;;16.27;100.00
13593;BME280;6867;50.998;4.250;2023-09-07T04:42:32;101563.78;;;16.14;99.74
13593;BME280;6867;50.998;4.250;2023-09-07T04:44:59;101558.47;;;16.01;99.66
13593;BME280;6867;50.998;4.250;2023-09-07T04:47:25;101565.47;;;15.90;99.52
13593;BME280;6867;50.998;4.250;2023-09-07T04:49:53;101564.13;;;15.81;99.74
13593;BME280;6867;50.998;4.250;2023-09-07T04:52:20;101569.00;;;15.72;99.69
13593;BME280;6867;50.998;4.250;2023-09-07T04:54:47;101575.50;;;15.64;99.57
13593;BME280;6867;50.998;4.250;2023-09-07T04:57:16;101574.03;;;15.68;99.71
13593;BME280;6867;50.998;4.250;2023-09-07T04:59:43;101565.44;;;15.72;99.74
13593;BME280;6867;50.998;4.250;2023-09-07T05:02:10;101580.66;;;15.73;99.53
13593;BME280;6867;50.998;4.250;2023-09-07T05:04:37;101576.66;;;15.75;99.66
13593;BME280;6867;50.998;4.250;2023-09-07T05:07:05;101582.53;;;15.72;99.53
13593;BME280;6867;50.998;4.250;2023-09-07T05:09:31;101579.88;;;15.65;99.39
13593;BME280;6867;50.998;4.250;2023-09-07T05:11:58;101587.19;;;15.65;99.64
13593;BME280;6867;50.998;4.250;2023-09-07T05:14:25;101588.41;;;15.62;99.37
13593;BME280;6867;50.998;4.250;2023-09-07T05:16:52;101591.25;;;15.74;99.53
13593;BME280;6867;50.998;4.250;2023-09-07T05:19:21;101594.13;;;15.79;99.21
13593;BME280;6867;50.998;4.250;2023-09-07T05:21:48;101598.88;;;15.84;99.21
13593;BME280;6867;50.998;4.250;2023-09-07T05:24:16;101586.78;;;15.86;99.16
13593;BME280;6867;50.998;4.250;2023-09-07T05:26:43;101594.13;;;15.79;99.29
13593;BME280;6867;50.998;4.250;2023-09-07T05:29:11;101589.91;;;15.83;99.45
13593;BME280;6867;50.998;4.250;2023-09-07T05:31:38;101594.94;;;15.80;99.69
13593;BME280;6867;50.998;4.250;2023-09-07T05:34:04;101604.09;;;15.85;100.00
13593;BME280;6867;50.998;4.250;2023-09-07T05:36:31;101608.97;;;15.95;100.00
13593;BME280;6867;50.998;4.250;2023-09-07T05:38:58;101603.94;;;15.99;100.00
13593;BME280;6867;50.998;4.250;2023-09-07T05:41:28;101608.56;;;15.98;100.00
13593;BME280;6867;50.998;4.250;2023-09-07T05:43:55;101608.03;;;16.08;100.00
13593;BME280;6867;50.998;4.250;2023-09-07T05:46:21;101609.38;;;16.17;100.00
13593;BME280;6867;50.998;4.250;2023-09-07T05:48:48;101617.47;;;16.24;100.00
13593;BME280;6867;50.998;4.250;2023-09-07T05:51:15;101614.31;;;16.27;100.00
13593;BME280;6867;50.998;4.250;2023-09-07T05:53:41;101604.44;;;16.32;100.00
13593;BME280;6867;50.998;4.250;2023-09-07T05:56:08;101616.63;;;16.41;100.00
13593;BME280;6867;50.998;4.250;2023-09-07T05:58:36;101621.63;;;16.44;100.00
13593;BME280;6867;50.998;4.250;2023-09-07T06:01:03;101614.25;;;16.52;100.00
13593;BME280;6867;50.998;4.250;2023-09-07T06:03:30;101618.69;;;16.64;100.00
13593;BME280;6867;50.998;4.250;2023-09-07T06:05:57;101621.94;;;16.73;100.00
13593;BME280;6867;50.998;4.250;2023-09-07T06:08:24;101627.56;;;16.90;100.00
13593;BME280;6867;50.998;4.250;2023-09-07T06:10:51;101624.81;;;17.08;100.00
13593;BME280;6867;50.998;4.250;2023-09-07T06:13:19;101622.88;;;17.27;100.00
13593;BME280;6867;50.998;4.250;2023-09-07T06:15:47;101627.03;;;17.41;100.00
13593;BME280;6867;50.998;4.250;2023-09-07T06:18:14;101629.34;;;17.56;100.00
13593;BME280;6867;50.998;4.250;2023-09-07T06:20:40;101628.88;;;17.71;100.00
13593;BME280;6867;50.998;4.250;2023-09-07T06:23:07;101629.41;;;17.91;100.00
13593;BME280;6867;50.998;4.250;2023-09-07T06:25:33;101630.69;;;18.01;100.00
13593;BME280;6867;50.998;4.250;2023-09-07T06:27:59;101621.00;;;18.16;100.00
13593;BME280;6867;50.998;4.250;2023-09-07T06:30:26;101632.94;;;18.27;100.00
13593;BME280;6867;50.998;4.250;2023-09-07T06:32:54;101634.69;;;18.45;100.00
13593;BME280;6867;50.998;4.250;2023-09-07T06:35:22;101634.44;;;18.58;100.00
13593;BME280;6867;50.998;4.250;2023-09-07T06:37:49;101625.44;;;18.70;100.00
13593;BME280;6867;50.998;4.250;2023-09-07T06:40:15;101629.53;;;18.84;100.00
13593;BME280;6867;50.998;4.250;2023-09-07T06:42:43;101627.03;;;18.94;100.00
13593;BME280;6867;50.998;4.250;2023-09-07T06:45:09;101622.03;;;19.03;99.18
13593;BME280;6867;50.998;4.250;2023-09-07T06:47:36;101631.06;;;19.20;99.25
13593;BME280;6867;50.998;4.250;2023-09-07T06:50:05;101625.28;;;19.33;98.25
13593;BME280;6867;50.998;4.250;2023-09-07T06:52:32;101621.00;;;19.37;97.87
13593;BME280;6867;50.998;4.250;2023-09-07T06:54:58;101630.44;;;19.47;97.09
13593;BME280;6867;50.998;4.250;2023-09-07T06:57:25;101632.28;;;19.58;96.72
13593;BME280;6867;50.998;4.250;2023-09-07T06:59:52;101636.34;;;19.72;96.60
13593;BME280;6867;50.998;4.250;2023-09-07T07:02:18;101639.25;;;19.82;95.68
13593;BME280;6867;50.998;4.250;2023-09-07T07:04:45;101637.50;;;19.93;95.16
13593;BME280;6867;50.998;4.250;2023-09-07T07:07:13;101638.22;;;20.05;94.49
13593;BME280;6867;50.998;4.250;2023-09-07T07:09:40;101643.03;;;20.15;94.11
13593;BME280;6867;50.998;4.250;2023-09-07T07:12:06;101641.25;;;20.26;93.35
13593;BME280;6867;50.998;4.250;2023-09-07T07:14:33;101653.66;;;20.33;92.89
13593;BME280;6867;50.998;4.250;2023-09-07T07:17:00;101650.22;;;20.43;92.68
13593;BME280;6867;50.998;4.250;2023-09-07T07:19:30;101641.06;;;20.49;91.91
13593;BME280;6867;50.998;4.250;2023-09-07T07:21:56;101644.94;;;20.53;91.69
13593;BME280;6867;50.998;4.250;2023-09-07T07:24:24;101646.41;;;20.83;90.94
13593;BME280;6867;50.998;4.250;2023-09-07T07:26:51;101642.78;;;20.77;90.45
13593;BME280;6867;50.998;4.250;2023-09-07T07:29:18;101643.47;;;20.89;89.92
13593;BME280;6867;50.998;4.250;2023-09-07T07:31:44;101652.28;;;20.97;89.64
13593;BME280;6867;50.998;4.250;2023-09-07T07:34:12;101643.38;;;21.06;89.04
13593;BME280;6867;50.998;4.250;2023-09-07T07:36:38;101657.63;;;21.08;88.49
13593;BME280;6867;50.998;4.250;2023-09-07T07:39:05;101644.13;;;21.24;88.16
13593;BME280;6867;50.998;4.250;2023-09-07T07:41:34;101643.16;;;21.35;87.35
13593;BME280;6867;50.998;4.250;2023-09-07T07:44:01;101645.22;;;21.50;86.98
13593;BME280;6867;50.998;4.250;2023-09-07T07:46:28;101640.84;;;21.49;86.48
13593;BME280;6867;50.998;4.250;2023-09-07T07:48:54;101635.91;;;21.46;85.49
13593;BME280;6867;50.998;4.250;2023-09-07T07:51:22;101641.53;;;21.66;84.90
13593;BME280;6867;50.998;4.250;2023-09-07T07:53:48;101637.88;;;21.87;84.51
13593;BME280;6867;50.998;4.250;2023-09-07T07:56:15;101634.69;;;22.01;83.77
13593;BME280;6867;50.998;4.250;2023-09-07T07:58:44;101635.34;;;22.13;83.10
13593;BME280;6867;50.998;4.250;2023-09-07T08:01:15;101626.03;;;22.14;83.29
13593;BME280;6867;50.998;4.250;2023-09-07T08:03:42;101626.94;;;22.25;81.63
13593;BME280;6867;50.998;4.250;2023-09-07T08:06:08;101620.16;;;22.32;80.57
13593;BME280;6867;50.998;4.250;2023-09-07T08:08:36;101616.66;;;22.47;78.68
13593;BME280;6867;50.998;4.250;2023-09-07T08:11:02;101622.97;;;22.53;78.54
13593;BME280;6867;50.998;4.250;2023-09-07T08:13:31;101620.88;;;22.70;77.89
13593;BME280;6867;50.998;4.250;2023-09-07T08:16:00;101629.72;;;22.93;78.03
13593;BME280;6867;50.998;4.250;2023-09-07T08:18:26;101620.69;;;23.02;77.90
13593;BME280;6867;50.998;4.250;2023-09-07T08:20:53;101618.78;;;22.98;77.53
13593;BME280;6867;50.998;4.250;2023-09-07T08:23:20;101628.09;;;22.92;78.68
13593;BME280;6867;50.998;4.250;2023-09-07T08:25:47;101622.91;;;23.00;77.93
13593;BME280;6867;50.998;4.250;2023-09-07T08:28:14;101617.44;;;23.10;77.13
13593;BME280;6867;50.998;4.250;2023-09-07T08:30:43;101612.53;;;23.28;75.89
13593;BME280;6867;50.998;4.250;2023-09-07T08:33:11;101616.09;;;23.44;76.02
13593;BME280;6867;50.998;4.250;2023-09-07T08:35:38;101611.19;;;23.46;75.56
13593;BME280;6867;50.998;4.250;2023-09-07T08:38:09;101612.28;;;23.55;74.98
13593;BME280;6867;50.998;4.250;2023-09-07T08:40:37;101604.34;;;23.69;74.11
13593;BME280;6867;50.998;4.250;2023-09-07T08:43:08;101604.59;;;23.77;74.27
13593;BME280;6867;50.998;4.250;2023-09-07T08:45:41;101606.53;;;23.92;74.05
13593;BME280;6867;50.998;4.250;2023-09-07T08:48:08;101604.88;;;23.91;73.25
13593;BME280;6867;50.998;4.250;2023-09-07T08:50:38;101592.22;;;24.00;72.08
13593;BME280;6867;50.998;4.250;2023-09-07T08:53:08;101601.53;;;24.15;72.22
13593;BME280;6867;50.998;4.250;2023-09-07T08:55:35;101602.31;;;24.30;72.31
13593;BME280;6867;50.998;4.250;2023-09-07T08:58:02;101605.63;;;24.38;71.79
13593;BME280;6867;50.998;4.250;2023-09-07T09:00:28;101609.38;;;24.52;72.58
13593;BME280;6867;50.998;4.250;2023-09-07T09:02:56;101618.75;;;24.51;73.17
13593;BME280;6867;50.998;4.250;2023-09-07T09:05:23;101589.91;;;24.48;71.43
13593;BME280;6867;50.998;4.250;2023-09-07T09:08:01;101610.72;;;24.59;71.95
13593;BME280;6867;50.998;4.250;2023-09-07T09:10:29;101591.66;;;24.78;70.87
13593;BME280;6867;50.998;4.250;2023-09-07T09:12:56;101590.22;;;24.91;69.98
13593;BME280;6867;50.998;4.250;2023-09-07T09:15:25;101572.94;;;24.85;68.41
13593;BME280;6867;50.998;4.250;2023-09-07T09:17:51;101572.91;;;24.96;68.05
13593;BME280;6867;50.998;4.250;2023-09-07T09:20:23;101565.94;;;25.14;66.95
13593;BME280;6867;50.998;4.250;2023-09-07T09:22:53;101584.81;;;25.25;67.84
13593;BME280;6867;50.998;4.250;2023-09-07T09:25:22;101586.25;;;25.18;68.03
13593;BME280;6867;50.998;4.250;2023-09-07T09:27:49;101584.16;;;25.39;67.42
13593;BME280;6867;50.998;4.250;2023-09-07T09:30:16;101572.44;;;25.57;66.62
13593;BME280;6867;50.998;4.250;2023-09-07T09:32:43;101574.63;;;25.60;66.46
13593;BME280;6867;50.998;4.250;2023-09-07T09:35:10;101585.00;;;25.68;66.96
13593;BME280;6867;50.998;4.250;2023-09-07T09:37:44;101572.31;;;25.72;66.06
13593;BME280;6867;50.998;4.250;2023-09-07T09:40:12;101561.88;;;25.69;65.10
13593;BME280;6867;50.998;4.250;2023-09-07T09:42:41;101573.59;;;25.85;65.73
13593;BME280;6867;50.998;4.250;2023-09-07T09:45:09;101571.34;;;25.87;65.46
13593;BME280;6867;50.998;4.250;2023-09-07T09:47:38;101554.03;;;26.11;64.94
13593;BME280;6867;50.998;4.250;2023-09-07T09:50:07;101548.03;;;26.03;64.24
13593;BME280;6867;50.998;4.250;2023-09-07T09:52:34;101550.56;;;26.24;64.41
13593;BME280;6867;50.998;4.250;2023-09-07T09:55:03;101561.50;;;26.29;64.72
13593;BME280;6867;50.998;4.250;2023-09-07T09:57:31;101547.63;;;26.15;64.10
13593;BME280;6867;50.998;4.250;2023-09-07T10:00:00;101574.53;;;26.23;65.32
13593;BME280;6867;50.998;4.250;2023-09-07T10:02:35;101543.50;;;26.37;63.59
13593;BME280;6867;50.998;4.250;2023-09-07T10:05:03;101556.91;;;26.48;63.90
13593;BME280;6867;50.998;4.250;2023-09-07T10:07:42;101555.41;;;26.56;63.76
13593;BME280;6867;50.998;4.250;2023-09-07T10:10:09;101568.00;;;26.62;64.30
13593;BME280;6867;50.998;4.250;2023-09-07T10:12:40;101576.22;;;26.67;65.00
13593;BME280;6867;50.998;4.250;2023-09-07T10:15:19;101565.34;;;26.76;64.26
13593;BME280;6867;50.998;4.250;2023-09-07T10:17:46;101544.34;;;26.80;63.35
13593;BME280;6867;50.998;4.250;2023-09-07T10:20:15;101529.34;;;27.05;61.46
13593;BME280;6867;50.998;4.250;2023-09-07T10:22:42;101525.94;;;27.13;61.46
13593;BME280;6867;50.998;4.250;2023-09-07T10:25:19;101552.06;;;27.35;62.21
13593;BME280;6867;50.998;4.250;2023-09-07T10:27:45;101525.63;;;27.15;61.72
13593;BME280;6867;50.998;4.250;2023-09-07T10:30:14;101538.94;;;27.26;62.09
13593;BME280;6867;50.998;4.250;2023-09-07T10:32:45;101542.34;;;27.37;62.14
13593;BME280;6867;50.998;4.250;2023-09-07T10:35:15;101550.56;;;27.56;62.33
13593;BME280;6867;50.998;4.250;2023-09-07T10:37:44;101534.00;;;27.56;61.43
13593;BME280;6867;50.998;4.250;2023-09-07T10:40:12;101533.69;;;27.58;60.57
13593;BME280;6867;50.998;4.250;2023-09-07T10:42:41;101520.16;;;27.75;60.07
13593;BME280;6867;50.998;4.250;2023-09-07T10:45:09;101539.53;;;27.70;60.76
13593;BME280;6867;50.998;4.250;2023-09-07T10:47:41;101542.44;;;27.78;61.37
13593;BME280;6867;50.998;4.250;2023-09-07T10:50:10;101542.22;;;27.75;60.99
13593;BME280;6867;50.998;4.250;2023-09-07T10:52:38;101518.13;;;27.94;60.04
13593;BME280;6867;50.998;4.250;2023-09-07T10:55:05;101508.31;;;27.74;59.30
13593;BME280;6867;50.998;4.250;2023-09-07T10:57:32;101506.66;;;27.73;59.12
13593;BME280;6867;50.998;4.250;2023-09-07T11:00:08;101520.25;;;27.84;59.70
13593;BME280;6867;50.998;4.250;2023-09-07T11:02:36;101509.00;;;28.08;59.06
13593;BME280;6867;50.998;4.250;2023-09-07T11:05:05;101495.81;;;28.04;57.81
13593;BME280;6867;50.998;4.250;2023-09-07T11:07:32;101509.72;;;27.99;59.14
13593;BME280;6867;50.998;4.250;2023-09-07T11:09:58;101490.59;;;28.30;57.25
13593;BME280;6867;50.998;4.250;2023-09-07T11:12:25;101482.16;;;28.49;57.59
13593;BME280;6867;50.998;4.250;2023-09-07T11:14:53;101497.81;;;28.54;57.97
13593;BME280;6867;50.998;4.250;2023-09-07T11:17:26;101470.97;;;28.68;56.17
13593;BME280;6867;50.998;4.250;2023-09-07T11:19:53;101481.19;;;28.68;57.43
13593;BME280;6867;50.998;4.250;2023-09-07T11:22:21;101505.16;;;28.95;57.31
13593;BME280;6867;50.998;4.250;2023-09-07T11:24:48;101491.06;;;28.83;56.62
13593;BME280;6867;50.998;4.250;2023-09-07T11:27:17;101500.78;;;28.80;57.91
13593;BME280;6867;50.998;4.250;2023-09-07T11:29:50;101486.41;;;28.92;56.59
13593;BME280;6867;50.998;4.250;2023-09-07T11:32:17;101496.19;;;29.12;57.33
13593;BME280;6867;50.998;4.250;2023-09-07T11:34:47;101505.91;;;29.09;58.07
13593;BME280;6867;50.998;4.250;2023-09-07T11:37:16;101468.31;;;29.08;56.32
13593;BME280;6867;50.998;4.250;2023-09-07T11:39:44;101483.44;;;29.02;56.72
13593;BME280;6867;50.998;4.250;2023-09-07T11:42:11;101479.69;;;29.29;56.52
13593;BME280;6867;50.998;4.250;2023-09-07T11:44:37;101476.09;;;29.28;55.73
13593;BME280;6867;50.998;4.250;2023-09-07T11:47:04;101471.28;;;29.12;55.77
13593;BME280;6867;50.998;4.250;2023-09-07T11:49:31;101466.31;;;29.22;56.07
13593;BME280;6867;50.998;4.250;2023-09-07T11:51:58;101460.72;;;29.45;55.47
13593;BME280;6867;50.998;4.250;2023-09-07T11:54:25;101450.81;;;29.52;54.67
13593;BME280;6867;50.998;4.250;2023-09-07T11:56:53;101496.81;;;29.62;56.41
13593;BME280;6867;50.998;4.250;2023-09-07T11:59:20;101421.44;;;29.34;53.72
13593;BME280;6867;50.998;4.250;2023-09-07T12:01:47;101441.13;;;29.33;54.64
13593;BME280;6867;50.998;4.250;2023-09-07T12:04:13;101445.81;;;29.23;54.60
13593;BME280;6867;50.998;4.250;2023-09-07T12:06:40;101418.22;;;29.41;53.02
13593;BME280;6867;50.998;4.250;2023-09-07T12:09:07;101425.22;;;29.47;53.99
13593;BME280;6867;50.998;4.250;2023-09-07T12:11:34;101452.00;;;29.29;55.07
13593;BME280;6867;50.998;4.250;2023-09-07T12:14:03;101408.00;;;29.10;53.53
13593;BME280;6867;50.998;4.250;2023-09-07T12:16:30;101429.91;;;29.38;53.74
13593;BME280;6867;50.998;4.250;2023-09-07T12:18:57;101416.03;;;29.29;53.38
13593;BME280;6867;50.998;4.250;2023-09-07T12:21:24;101430.19;;;29.59;53.95
13593;BME280;6867;50.998;4.250;2023-09-07T12:23:51;101420.66;;;29.82;52.67
13593;BME280;6867;50.998;4.250;2023-09-07T12:26:17;101408.25;;;29.80;52.29
13593;BME280;6867;50.998;4.250;2023-09-07T12:28:46;101423.88;;;29.67;53.98
13593;BME280;6867;50.998;4.250;2023-09-07T12:31:14;101397.00;;;29.76;52.65
13593;BME280;6867;50.998;4.250;2023-09-07T12:33:42;101384.13;;;29.63;52.23
13593;BME280;6867;50.998;4.250;2023-09-07T12:36:08;101432.06;;;29.81;53.88
13593;BME280;6867;50.998;4.250;2023-09-07T12:38:37;101415.47;;;29.89;53.25
13593;BME280;6867;50.998;4.250;2023-09-07T12:41:03;101394.81;;;30.21;52.03
13593;BME280;6867;50.998;4.250;2023-09-07T12:43:30;101401.34;;;30.17;52.36
13593;BME280;6867;50.998;4.250;2023-09-07T12:45:57;101388.28;;;30.09;51.64
13593;BME280;6867;50.998;4.250;2023-09-07T12:48:25;101399.72;;;30.16;51.83
13593;BME280;6867;50.998;4.250;2023-09-07T12:50:53;101391.59;;;30.19;51.89
13593;BME280;6867;50.998;4.250;2023-09-07T12:53:20;101388.63;;;30.16;52.16
13593;BME280;6867;50.998;4.250;2023-09-07T12:55:50;101401.16;;;30.13;52.54
13593;BME280;6867;50.998;4.250;2023-09-07T12:58:17;101415.53;;;30.33;52.87